createdAt,value
2019-06-01T00:00:46.259Z,98000.55
2019-06-01T00:03:15.700Z,98001.89
2019-06-01T00:05:45.096Z,98000.86
2019-06-01T00:08:14.466Z,97999.50
2019-06-01T00:10:45.129Z,98001.33
2019-06-01T00:13:14.782Z,97995.81
2019-06-01T00:15:44.240Z,98000.64
2019-06-01T00:18:13.661Z,97999.13
2019-06-01T00:20:44.218Z,98001.44
2019-06-01T00:23:13.675Z,97998.94
2019-06-01T00:25:43.040Z,98002.73
2019-06-01T00:28:12.386Z,97997.41
2019-06-01T00:30:42.166Z,97994.06
2019-06-01T00:33:11.528Z,97991.25
2019-06-01T00:35:41.324Z,97984.39
2019-06-01T00:38:10.769Z,97990.87
2019-06-01T00:40:40.106Z,97983.89
2019-06-01T00:43:09.520Z,97991.36
2019-06-01T00:45:38.887Z,97985.23
2019-06-01T00:48:08.249Z,97988.20
2019-06-01T00:50:37.638Z,97977.23
2019-06-01T00:53:06.990Z,97972.56
2019-06-01T00:55:36.357Z,97976.21
2019-06-01T00:58:05.815Z,97979.38
2019-06-01T01:00:43.545Z,97977.16
2019-06-01T01:03:06.352Z,97973.81
2019-06-01T01:05:36.046Z,97975.00
2019-06-01T01:08:05.479Z,97977.02
2019-06-01T01:10:34.984Z,97969.48
2019-06-01T01:13:08.125Z,97971.95
2019-06-01T01:15:37.646Z,97971.95
2019-06-01T01:18:07.531Z,97976.29
2019-06-01T01:20:37.636Z,97975.61
2019-06-01T01:23:07.732Z,97976.75
2019-06-01T01:25:37.087Z,97967.58
2019-06-01T01:28:06.537Z,97973.74
2019-06-01T01:30:36.046Z,97974.39
2019-06-01T01:33:05.462Z,97974.69
2019-06-01T01:35:34.897Z,97973.20
2019-06-01T01:38:04.444Z,97974.66
2019-06-01T01:40:33.869Z,97973.02
2019-06-01T01:43:03.240Z,97977.81
2019-06-01T01:45:32.611Z,97977.12
2019-06-01T01:48:02.029Z,97978.95
2019-06-01T01:50:31.499Z,97978.30
2019-06-01T01:53:00.838Z,97972.78
2019-06-01T01:55:30.234Z,97980.09
2019-06-01T01:57:59.647Z,97974.08
2019-06-01T02:00:41.491Z,97970.58
2019-06-01T02:03:11.021Z,97973.88
2019-06-01T02:05:40.499Z,97970.53
2019-06-01T02:08:09.981Z,97969.36
2019-06-01T02:10:39.828Z,97964.03
2019-06-01T02:13:09.271Z,97964.98
2019-06-01T02:15:39.784Z,97957.87
2019-06-01T02:18:09.232Z,97959.62
2019-06-01T02:20:38.675Z,97959.13
2019-06-01T02:23:08.090Z,97954.45
2019-06-01T02:25:37.538Z,97955.23
2019-06-01T02:28:06.989Z,97951.40
2019-06-01T02:30:36.389Z,97952.23
2019-06-01T02:33:05.803Z,97948.25
2019-06-01T02:35:35.230Z,97952.88
2019-06-01T02:38:05.779Z,97954.06
2019-06-01T02:40:35.509Z,97950.56
2019-06-01T02:43:06.694Z,97945.54
2019-06-01T02:45:36.806Z,97948.20
2019-06-01T02:48:06.773Z,97949.68
2019-06-01T02:50:36.452Z,97948.01
2019-06-01T02:53:05.942Z,97951.84
2019-06-01T02:55:35.274Z,97956.48
2019-06-01T02:58:04.908Z,97951.66
2019-06-01T03:01:11.985Z,97957.97
2019-06-01T03:03:41.911Z,97953.44
2019-06-01T03:06:14.265Z,97955.45
2019-06-01T03:08:44.671Z,97961.77
2019-06-01T03:11:16.085Z,97959.40
2019-06-01T03:13:47.165Z,97964.38
2019-06-01T03:16:18.929Z,97967.04
2019-06-01T03:18:48.842Z,97963.69
2019-06-01T03:21:19.776Z,97967.68
2019-06-01T03:23:49.239Z,97969.50
2019-06-01T03:26:18.689Z,97964.18
2019-06-01T03:28:51.613Z,97967.14
2019-06-01T03:31:21.424Z,97960.67
2019-06-01T03:33:50.842Z,97964.48
2019-06-01T03:36:20.357Z,97958.01
2019-06-01T03:38:50.217Z,97961.80
2019-06-01T03:41:19.550Z,97958.65
2019-06-01T03:43:48.990Z,97960.97
2019-06-01T03:46:19.974Z,97960.97
2019-06-01T03:48:49.301Z,97959.30
2019-06-01T03:51:18.690Z,97960.63
2019-06-01T03:53:48.060Z,97960.63
2019-06-01T03:56:17.401Z,97963.43
2019-06-01T03:58:46.739Z,97961.27
2019-06-01T04:01:16.073Z,97955.59
2019-06-01T04:03:45.425Z,97960.92
2019-06-01T04:06:14.791Z,97958.26
2019-06-01T04:08:44.132Z,97963.58
2019-06-01T04:11:13.463Z,97958.75
2019-06-01T04:13:42.951Z,97959.25
2019-06-01T04:16:12.310Z,97961.27
2019-06-01T04:18:41.647Z,97961.76
2019-06-01T04:21:12.110Z,97960.92
2019-06-01T04:23:41.417Z,97963.09
2019-06-01T04:26:10.828Z,97960.92
2019-06-01T04:28:40.313Z,97953.09
2019-06-01T04:31:10.818Z,97950.92
2019-06-01T04:33:40.330Z,97959.25
2019-06-01T04:36:09.688Z,97960.58
2019-06-01T04:38:39.061Z,97961.76
2019-06-01T04:41:09.741Z,97957.27
2019-06-01T04:43:39.265Z,97959.09
2019-06-01T04:46:08.631Z,97960.08
2019-06-01T04:48:37.982Z,97954.47
2019-06-01T04:51:08.723Z,97957.96
2019-06-01T04:53:38.370Z,97960.63
2019-06-01T04:56:09.027Z,97960.28
2019-06-01T04:58:38.596Z,97955.65
2019-06-01T05:01:08.991Z,97963.28
2019-06-01T05:03:41.363Z,97958.50
2019-06-01T05:06:11.336Z,97957.68
2019-06-01T05:08:42.061Z,97964.67
2019-06-01T05:11:11.795Z,97974.53
2019-06-01T05:13:41.480Z,97974.19
2019-06-01T05:16:12.936Z,97973.20
2019-06-01T05:18:42.004Z,97975.71
2019-06-01T05:21:12.626Z,97970.73
2019-06-01T05:23:42.492Z,97975.76
2019-06-01T05:26:13.162Z,97968.27
2019-06-01T05:28:42.668Z,97979.45
2019-06-01T05:31:16.780Z,97978.95
2019-06-01T05:33:43.390Z,97977.97
2019-06-01T05:36:14.159Z,97974.81
2019-06-01T05:38:43.797Z,97974.32
2019-06-01T05:41:14.853Z,97978.16
2019-06-01T05:43:44.360Z,97979.50
2019-06-01T05:46:14.064Z,97978.52
2019-06-01T05:48:43.620Z,97971.70
2019-06-01T05:51:15.555Z,97968.20
2019-06-01T05:53:44.255Z,97961.75
2019-06-01T05:56:14.783Z,97965.44
2019-06-01T05:58:44.339Z,97965.78
2019-06-01T06:01:14.672Z,97970.95
2019-06-01T06:03:44.287Z,97971.18
2019-06-01T06:06:13.861Z,97975.52
2019-06-01T06:08:43.239Z,97976.28
2019-06-01T06:11:12.931Z,97977.19
2019-06-01T06:13:42.270Z,97972.63
2019-06-01T06:16:11.744Z,97976.50
2019-06-01T06:18:41.316Z,97965.97
2019-06-01T06:21:11.898Z,97966.88
2019-06-01T06:23:41.504Z,97975.70
2019-06-01T06:26:10.935Z,97977.38
2019-06-01T06:28:40.263Z,97981.72
2019-06-01T06:31:12.935Z,97983.89
2019-06-01T06:33:55.623Z,97982.70
2019-06-01T06:36:13.682Z,97987.39
2019-06-01T06:38:43.362Z,97988.57
2019-06-01T06:41:13.927Z,97988.91
2019-06-01T06:43:43.290Z,97990.09
2019-06-01T06:46:12.746Z,97995.77
2019-06-01T06:48:42.216Z,97988.95
2019-06-01T06:51:11.622Z,97993.98
2019-06-01T06:53:41.006Z,97997.82
2019-06-01T06:56:10.421Z,97993.52
2019-06-01T06:58:39.805Z,97993.52
2019-06-01T07:01:11.990Z,97999.53
2019-06-01T07:03:40.593Z,97987.06
2019-06-01T07:06:10.112Z,97990.75
2019-06-01T07:08:39.549Z,97987.09
2019-06-01T07:11:11.932Z,97991.78
2019-06-01T07:13:40.235Z,97996.27
2019-06-01T07:16:09.741Z,97995.63
2019-06-01T07:18:39.186Z,97994.67
2019-06-01T07:21:08.586Z,97988.81
2019-06-01T07:23:37.985Z,97988.09
2019-06-01T07:26:07.489Z,97985.34
2019-06-01T07:28:36.921Z,97992.34
2019-06-01T07:31:06.362Z,97988.66
2019-06-01T07:33:35.844Z,97991.02
2019-06-01T07:36:05.387Z,97988.88
2019-06-01T07:38:34.840Z,97986.22
2019-06-01T07:41:04.433Z,97989.53
2019-06-01T07:43:33.873Z,97991.25
2019-06-01T07:46:03.475Z,97986.30
2019-06-01T07:48:33.406Z,97982.45
2019-06-01T07:51:03.023Z,97981.03
2019-06-01T07:53:32.815Z,97982.21
2019-06-01T07:56:02.342Z,97982.89
2019-06-01T07:58:32.958Z,97974.25
2019-06-01T08:01:04.636Z,97977.75
2019-06-01T08:03:35.094Z,97974.44
2019-06-01T08:06:11.854Z,97979.14
2019-06-01T08:08:41.311Z,97976.02
2019-06-01T08:11:10.943Z,97974.87
2019-06-01T08:13:40.414Z,97974.09
2019-06-01T08:16:09.914Z,97969.59
2019-06-01T08:18:39.354Z,97966.28
2019-06-01T08:21:08.848Z,97965.97
2019-06-01T08:23:38.319Z,97960.97
2019-06-01T08:26:07.817Z,97958.98
2019-06-01T08:28:37.230Z,97955.17
2019-06-01T08:31:06.669Z,97952.86
2019-06-01T08:33:36.133Z,97953.39
2019-06-01T08:36:05.761Z,97953.57
2019-06-01T08:38:35.231Z,97953.93
2019-06-01T08:41:04.635Z,97955.45
2019-06-01T08:43:34.145Z,97955.59
2019-06-01T08:46:03.819Z,97949.64
2019-06-01T08:48:34.084Z,97948.98
2019-06-01T08:51:03.719Z,97945.33
2019-06-01T08:53:34.242Z,97944.17
2019-06-01T08:56:03.916Z,97943.85
2019-06-01T08:58:34.594Z,97943.87
2019-06-01T09:01:04.261Z,97947.89
2019-06-01T09:03:35.197Z,97944.75
2019-06-01T09:06:05.004Z,97945.59
2019-06-01T09:08:35.168Z,97939.09
2019-06-01T09:11:04.867Z,97941.61
2019-06-01T09:13:35.480Z,97940.83
2019-06-01T09:16:05.438Z,97939.84
2019-06-01T09:18:35.873Z,97929.34
2019-06-01T09:21:06.253Z,97935.87
2019-06-01T09:23:37.029Z,97931.88
2019-06-01T09:26:07.219Z,97930.52
2019-06-01T09:28:36.730Z,97929.52
2019-06-01T09:31:06.319Z,97925.88
2019-06-01T09:33:36.900Z,97926.55
2019-06-01T09:36:06.533Z,97928.89
2019-06-01T09:38:36.183Z,97932.23
2019-06-01T09:41:05.623Z,97931.89
2019-06-01T09:43:35.147Z,97934.61
2019-06-01T09:46:04.689Z,97934.11
2019-06-01T09:48:34.120Z,97941.13
2019-06-01T09:51:03.692Z,97937.61
2019-06-01T09:53:34.479Z,97933.56
2019-06-01T09:56:04.267Z,97928.55
2019-06-01T09:58:34.585Z,97931.20
2019-06-01T10:01:04.183Z,97928.52
2019-06-01T10:03:34.422Z,97921.47
2019-06-01T10:06:04.126Z,97921.31
2019-06-01T10:08:34.327Z,97913.11
2019-06-01T10:11:04.158Z,97917.77
2019-06-01T10:13:34.719Z,97910.70
2019-06-01T10:16:04.174Z,97913.59
2019-06-01T10:18:35.144Z,97915.22
2019-06-01T10:21:04.937Z,97911.63
2019-06-01T10:23:34.654Z,97911.05
2019-06-01T10:26:04.478Z,97914.84
2019-06-01T10:28:43.399Z,97909.09
2019-06-01T10:31:12.843Z,97902.42
2019-06-01T10:33:43.319Z,97902.57
2019-06-01T10:36:20.762Z,97900.88
2019-06-01T10:38:44.092Z,97908.08
2019-06-01T10:41:13.569Z,97903.52
2019-06-01T10:43:43.264Z,97902.58
2019-06-01T10:46:12.695Z,97899.53
2019-06-01T10:48:42.266Z,97897.32
2019-06-01T10:51:14.886Z,97900.35
2019-06-01T10:53:44.390Z,97894.64
2019-06-01T10:56:14.089Z,97897.06
2019-06-01T10:58:59.162Z,97895.86
2019-06-01T11:01:15.244Z,97883.95
2019-06-01T11:03:44.989Z,97883.95
2019-06-01T11:06:14.476Z,97889.31
2019-06-01T11:08:44.003Z,97890.67
2019-06-01T11:11:13.738Z,97891.33
2019-06-01T11:13:43.410Z,97882.36
2019-06-01T11:16:12.972Z,97878.44
2019-06-01T11:18:43.582Z,97878.58
2019-06-01T11:21:13.385Z,97874.55
2019-06-01T11:23:46.112Z,97873.03
2019-06-01T11:26:14.502Z,97873.03
2019-06-01T11:28:44.433Z,97876.16
2019-06-01T11:31:14.094Z,97874.49
2019-06-01T11:33:44.263Z,97867.33
2019-06-01T11:36:14.074Z,97864.44
2019-06-01T11:38:44.874Z,97861.50
2019-06-01T11:41:18.497Z,97859.24
2019-06-01T11:43:46.461Z,97859.24
2019-06-01T11:46:16.036Z,97851.75
2019-06-01T11:48:45.607Z,97855.26
2019-06-01T11:51:15.220Z,97851.30
2019-06-01T11:53:45.791Z,97853.34
2019-06-01T11:56:15.523Z,97840.15
2019-06-01T11:58:45.597Z,97837.63
2019-06-01T12:01:15.417Z,97832.18
2019-06-01T12:03:46.183Z,97833.05
2019-06-01T12:06:15.921Z,97831.84
2019-06-01T12:08:46.348Z,97833.09
2019-06-01T12:11:15.981Z,97818.28
2019-06-01T12:13:46.508Z,97820.77
2019-06-01T12:16:18.186Z,97820.05
2019-06-01T12:18:47.736Z,97827.59
2019-06-01T12:21:17.254Z,97815.30
2019-06-01T12:23:47.605Z,97815.38
2019-06-01T12:26:17.627Z,97820.80
2019-06-01T12:28:47.975Z,97809.05
2019-06-01T12:31:17.718Z,97810.30
2019-06-01T12:33:48.695Z,97807.34
2019-06-01T12:36:18.332Z,97814.42
2019-06-01T12:38:54.004Z,97814.53
2019-06-01T12:41:24.003Z,97813.09
2019-06-01T12:44:11.527Z,97801.36
2019-06-01T12:46:41.719Z,97802.30
2019-06-01T12:49:11.500Z,97803.79
2019-06-01T12:51:42.396Z,97799.34
2019-06-01T12:54:12.110Z,97796.55
2019-06-01T12:56:42.792Z,97796.36
2019-06-01T12:59:12.631Z,97790.77
2019-06-01T13:01:43.061Z,97791.70
2019-06-01T13:04:12.918Z,97783.31
2019-06-01T13:06:42.723Z,97779.27
2019-06-01T13:09:12.342Z,97782.88
2019-06-01T13:11:43.104Z,97772.53
2019-06-01T13:14:12.873Z,97764.41
2019-06-01T13:16:47.325Z,97763.91
2019-06-01T13:19:15.390Z,97760.57
2019-06-01T13:21:45.310Z,97761.83
2019-06-01T13:24:15.053Z,97761.31
2019-06-01T13:26:45.734Z,97760.90
2019-06-01T13:29:15.356Z,97748.23
2019-06-01T13:31:46.036Z,97753.94
2019-06-01T13:34:15.684Z,97753.13
2019-06-01T13:36:46.469Z,97745.80
2019-06-01T13:39:16.507Z,97747.66
2019-06-01T13:41:47.141Z,97739.31
2019-06-01T13:44:16.851Z,97734.31
2019-06-01T13:46:47.429Z,97738.94
2019-06-01T13:49:17.209Z,97734.09
2019-06-01T13:51:48.005Z,97734.81
2019-06-01T13:54:17.933Z,97738.52
2019-06-01T13:56:48.569Z,97726.72
2019-06-01T13:59:18.383Z,97722.52
2019-06-01T14:01:48.804Z,97730.25
2019-06-01T14:04:18.374Z,97725.33
2019-06-01T14:06:48.999Z,97725.06
2019-06-01T14:09:21.605Z,97720.32
2019-06-01T14:11:51.207Z,97720.06
2019-06-01T14:14:21.082Z,97717.52
2019-06-01T14:16:51.752Z,97717.63
2019-06-01T14:19:21.387Z,97708.48
2019-06-01T14:21:52.330Z,97713.63
2019-06-01T14:24:22.172Z,97705.11
2019-06-01T14:26:52.322Z,97706.63
2019-06-01T14:29:22.187Z,97704.38
2019-06-01T14:32:23.160Z,97698.98
2019-06-01T14:35:27.610Z,97699.97
2019-06-01T14:37:57.693Z,97693.03
2019-06-01T14:40:27.438Z,97697.10
2019-06-01T14:42:57.796Z,97696.45
2019-06-01T14:45:27.619Z,97698.31
2019-06-01T14:47:57.677Z,97697.84
2019-06-01T14:50:27.335Z,97692.25
2019-06-01T14:52:57.882Z,97686.64
2019-06-01T14:55:27.630Z,97690.23
2019-06-01T14:57:58.404Z,97690.72
2019-06-01T15:00:28.662Z,97694.42
2019-06-01T15:02:58.458Z,97696.48
2019-06-01T15:05:27.959Z,97687.23
2019-06-01T15:07:59.050Z,97693.77
2019-06-01T15:10:29.031Z,97687.58
2019-06-01T15:13:02.591Z,97684.63
2019-06-01T15:15:29.901Z,97686.47
2019-06-01T15:18:03.522Z,97685.76
2019-06-01T15:20:30.852Z,97686.74
2019-06-01T15:23:00.452Z,97683.87
2019-06-01T15:25:30.281Z,97676.14
2019-06-01T15:27:59.958Z,97679.03
2019-06-01T15:30:29.619Z,97671.83
2019-06-01T15:32:59.173Z,97673.60
2019-06-01T15:35:28.768Z,97673.24
2019-06-01T15:38:01.903Z,97670.23
2019-06-01T15:40:29.544Z,97660.52
2019-06-01T15:42:59.479Z,97660.81
2019-06-01T15:45:29.284Z,97659.71
2019-06-01T15:47:59.777Z,97665.66
2019-06-01T15:50:29.544Z,97658.86
2019-06-01T15:52:59.403Z,97654.84
2019-06-01T15:55:28.988Z,97659.74
2019-06-01T15:57:58.555Z,97661.23
2019-06-01T16:00:28.118Z,97653.83
2019-06-01T16:02:58.876Z,97649.55
2019-06-01T16:05:28.600Z,97652.71
2019-06-01T16:07:59.328Z,97645.52
2019-06-01T16:10:29.053Z,97639.98
2019-06-01T16:12:59.585Z,97629.46
2019-06-01T16:15:29.222Z,97632.07
2019-06-01T16:17:59.990Z,97635.52
2019-06-01T16:20:29.724Z,97626.94
2019-06-01T16:23:00.313Z,97630.42
2019-06-01T16:25:30.048Z,97621.96
2019-06-01T16:28:00.897Z,97630.75
2019-06-01T16:30:30.639Z,97620.84
2019-06-01T16:33:00.712Z,97622.58
2019-06-01T16:35:30.315Z,97621.27
2019-06-01T16:38:02.311Z,97621.56
2019-06-01T16:40:31.232Z,97616.51
2019-06-01T16:43:01.588Z,97614.72
2019-06-01T16:45:31.131Z,97614.62
2019-06-01T16:48:01.670Z,97613.47
2019-06-01T16:50:31.377Z,97607.34
2019-06-01T16:53:02.129Z,97601.38
2019-06-01T16:55:31.741Z,97608.57
2019-06-01T16:58:01.493Z,97609.59
2019-06-01T17:00:31.168Z,97609.69
2019-06-01T17:03:00.948Z,97606.68
2019-06-01T17:05:30.463Z,97605.52
2019-06-01T17:08:00.776Z,97606.04
2019-06-01T17:10:30.389Z,97604.61
2019-06-01T17:13:01.492Z,97611.47
2019-06-01T17:15:31.075Z,97608.31
2019-06-01T17:18:03.584Z,97609.28
2019-06-01T17:20:42.720Z,97610.88
2019-06-01T17:23:26.251Z,97602.39
2019-06-01T17:25:43.944Z,97599.69
2019-06-01T17:28:13.692Z,97605.24
2019-06-01T17:30:43.410Z,97606.88
2019-06-01T17:33:12.915Z,97605.53
2019-06-01T17:35:42.835Z,97605.13
2019-06-01T17:38:12.517Z,97597.58
2019-06-01T17:40:43.337Z,97599.94
2019-06-01T17:43:13.385Z,97595.22
2019-06-01T17:45:43.236Z,97597.14
2019-06-01T17:48:24.676Z,97598.88
2019-06-01T17:50:44.119Z,97597.03
2019-06-01T17:53:13.683Z,97593.27
2019-06-01T17:55:43.404Z,97589.41
2019-06-01T17:58:13.080Z,97591.13
2019-06-01T18:00:42.866Z,97589.18
2019-06-01T18:03:12.408Z,97590.84
2019-06-01T18:05:42.305Z,97590.49
2019-06-01T18:08:12.811Z,97589.88
2019-06-01T18:10:53.082Z,97590.77
2019-06-01T18:13:14.345Z,97596.37
2019-06-01T18:15:43.910Z,97589.47
2019-06-01T18:18:13.485Z,97593.36
2019-06-01T18:20:43.184Z,97592.96
2019-06-01T18:23:13.398Z,97589.32
2019-06-01T18:25:43.190Z,97588.55
2019-06-01T18:28:18.574Z,97591.58
2019-06-01T18:30:44.080Z,97586.34
2019-06-01T18:33:13.632Z,97588.69
2019-06-01T18:35:44.654Z,97582.53
2019-06-01T18:38:16.155Z,97587.42
2019-06-01T18:40:45.840Z,97593.84
2019-06-01T18:43:18.368Z,97583.81
2019-06-01T18:45:48.354Z,97582.44
2019-06-01T18:48:19.422Z,97589.33
2019-06-01T18:50:49.135Z,97587.63
2019-06-01T18:53:20.210Z,97585.81
2019-06-01T18:55:49.840Z,97585.56
2019-06-01T18:58:31.560Z,97586.06
2019-06-01T19:01:01.137Z,97582.31
2019-06-01T19:03:30.638Z,97587.38
2019-06-01T19:06:00.153Z,97586.20
2019-06-01T19:08:29.671Z,97592.06
2019-06-01T19:10:59.152Z,97584.95
2019-06-01T19:13:28.710Z,97593.01
2019-06-01T19:15:58.264Z,97594.83
2019-06-01T19:18:27.766Z,97598.55
2019-06-01T19:20:57.333Z,97593.39
2019-06-01T19:23:26.823Z,97598.48
2019-06-01T19:25:56.324Z,97603.28
2019-06-01T19:28:25.800Z,97601.03
2019-06-01T19:30:55.631Z,97597.22
2019-06-01T19:33:25.147Z,97606.50
2019-06-01T19:35:54.709Z,97606.50
2019-06-01T19:38:24.267Z,97607.25
2019-06-01T19:40:53.763Z,97608.81
2019-06-01T19:43:23.283Z,97606.65
2019-06-01T19:45:52.840Z,97609.25
2019-06-01T19:48:22.332Z,97610.19
2019-06-01T19:50:51.814Z,97612.47
2019-06-01T19:53:21.331Z,97611.53
2019-06-01T19:55:50.827Z,97610.70
2019-06-01T19:58:20.397Z,97608.18
2019-06-01T20:00:49.864Z,97606.84
2019-06-01T20:03:21.977Z,97606.84
2019-06-01T20:05:50.623Z,97607.77
2019-06-01T20:08:20.167Z,97616.22
2019-06-01T20:10:49.646Z,97616.22
2019-06-01T20:13:19.367Z,97611.12
2019-06-01T20:15:48.799Z,97609.45
2019-06-01T20:18:19.152Z,97609.12
2019-06-01T20:20:48.784Z,97608.55
2019-06-01T20:23:19.560Z,97604.26
2019-06-01T20:25:49.099Z,97614.07
2019-06-01T20:28:19.587Z,97609.61
2019-06-01T20:30:49.547Z,97612.06
2019-06-01T20:33:20.502Z,97612.55
2019-06-01T20:35:50.089Z,97617.38
2019-06-01T20:38:20.584Z,97611.13
2019-06-01T20:40:50.163Z,97612.44
2019-06-01T20:43:20.866Z,97614.54
2019-06-01T20:45:50.501Z,97609.83
2019-06-01T20:48:20.933Z,97617.02
2019-06-01T20:50:50.654Z,97607.96
2019-06-01T20:53:21.020Z,97615.17
2019-06-01T20:55:50.714Z,97609.55
2019-06-01T20:58:22.900Z,97617.69
2019-06-01T21:00:51.502Z,97615.90
2019-06-01T21:03:21.910Z,97616.87
2019-06-01T21:05:51.475Z,97620.84
2019-06-01T21:08:22.413Z,97624.94
2019-06-01T21:10:52.046Z,97629.50
2019-06-01T21:13:22.254Z,97627.91
2019-06-01T21:15:51.947Z,97624.45
2019-06-01T21:18:22.529Z,97625.55
2019-06-01T21:20:52.238Z,97626.38
2019-06-01T21:23:22.963Z,97628.66
2019-06-01T21:25:52.671Z,97636.67
2019-06-01T21:28:23.708Z,97644.27
2019-06-01T21:30:53.654Z,97645.16
2019-06-01T21:33:26.638Z,97640.88
2019-06-01T21:35:54.392Z,97631.92
2019-06-01T21:38:23.883Z,97629.29
2019-06-01T21:40:53.359Z,97635.38
2019-06-01T21:43:29.486Z,97631.09
2019-06-01T21:45:54.014Z,97630.81
2019-06-01T21:48:24.187Z,97627.91
2019-06-01T21:50:53.995Z,97636.43
2019-06-01T21:53:24.524Z,97639.16
2019-06-01T21:55:54.117Z,97643.22
2019-06-01T21:58:24.563Z,97644.97
2019-06-01T22:00:54.206Z,97637.71
2019-06-01T22:03:25.549Z,97640.39
2019-06-01T22:05:55.126Z,97641.78
2019-06-01T22:08:25.372Z,97634.62
2019-06-01T22:10:55.105Z,97645.05
2019-06-01T22:13:27.102Z,97637.20
2019-06-01T22:15:55.755Z,97640.77
2019-06-01T22:18:25.834Z,97640.80
2019-06-01T22:20:55.412Z,97635.99
2019-06-01T22:23:26.000Z,97639.72
2019-06-01T22:25:55.612Z,97642.38
2019-06-01T22:28:26.280Z,97635.41
2019-06-01T22:30:55.960Z,97640.81
2019-06-01T22:33:26.556Z,97642.07
2019-06-01T22:35:56.077Z,97644.89
2019-06-01T22:38:25.833Z,97635.33
2019-06-01T22:40:55.533Z,97642.16
2019-06-01T22:43:38.976Z,97636.48
2019-06-01T22:45:56.204Z,97634.12
2019-06-01T22:48:26.647Z,97626.27
2019-06-01T22:50:56.201Z,97624.09
2019-06-01T22:53:26.226Z,97634.30
2019-06-01T22:55:55.833Z,97634.81
2019-06-01T22:58:25.388Z,97629.13
2019-06-01T23:00:54.846Z,97629.83
2019-06-01T23:03:24.405Z,97628.16
2019-06-01T23:05:53.890Z,97625.70
2019-06-01T23:08:24.029Z,97620.53
2019-06-01T23:10:54.864Z,97626.26
2019-06-01T23:13:24.494Z,97626.95
2019-06-01T23:15:54.073Z,97625.29
2019-06-01T23:18:23.682Z,97621.96
2019-06-01T23:20:53.119Z,97619.33
2019-06-01T23:23:23.896Z,97620.67
2019-06-01T23:25:53.481Z,97610.14
2019-06-01T23:28:24.243Z,97613.00
2019-06-01T23:30:53.731Z,97618.87
2019-06-01T23:33:23.227Z,97613.38
2019-06-01T23:35:52.723Z,97615.41
2019-06-01T23:38:22.575Z,97619.09
2019-06-01T23:40:52.156Z,97614.91
2019-06-01T23:43:22.659Z,97612.23
2019-06-01T23:45:52.310Z,97611.07
2019-06-01T23:48:23.011Z,97601.23
2019-06-01T23:50:52.709Z,97608.11
2019-06-01T23:53:23.338Z,97610.33
2019-06-01T23:55:53.026Z,97605.48
2019-06-01T23:58:23.921Z,97607.87
